sensor_id;sensor_type;location;lat;lon;timestamp;temperature;humidity
7900;DHT22;3995;50.856;4.404;2024-02-26T00:00:15;11.70;64.50
7900;DHT22;3995;50.856;4.404;2024-02-26T00:02:42;11.70;64.50
7900;DHT22;3995;50.856;4.404;2024-02-26T00:05:09;11.70;64.50
7900;DHT22;3995;50.856;4.404;2024-02-26T00:07:36;11.70;64.60
7900;DHT22;3995;50.856;4.404;2024-02-26T00:10:05;11.70;64.70
7900;DHT22;3995;50.856;4.404;2024-02-26T00:12:32;11.70;64.80
7900;DHT22;3995;50.856;4.404;2024-02-26T00:14:59;11.70;65.00
7900;DHT22;3995;50.856;4.404;2024-02-26T00:17:27;11.70;65.10
7900;DHT22;3995;50.856;4.404;2024-02-26T00:19:54;11.70;65.20
7900;DHT22;3995;50.856;4.404;2024-02-26T00:22:21;11.70;65.20
7900;DHT22;3995;50.856;4.404;2024-02-26T00:24:48;11.60;65.20
7900;DHT22;3995;50.856;4.404;2024-02-26T00:27:15;11.60;65.20
7900;DHT22;3995;50.856;4.404;2024-02-26T00:29:42;11.60;65.20
7900;DHT22;3995;50.856;4.404;2024-02-26T00:32:09;11.60;65.20
7900;DHT22;3995;50.856;4.404;2024-02-26T00:34:37;11.60;65.30
7900;DHT22;3995;50.856;4.404;2024-02-26T00:37:04;11.60;65.40
7900;DHT22;3995;50.856;4.404;2024-02-26T00:39:31;11.60;65.50
7900;DHT22;3995;50.856;4.404;2024-02-26T00:41:58;11.60;65.50
7900;DHT22;3995;50.856;4.404;2024-02-26T00:44:25;11.60;65.50
7900;DHT22;3995;50.856;4.404;2024-02-26T00:46:52;11.60;65.50
7900;DHT22;3995;50.856;4.404;2024-02-26T00:49:19;11.60;65.70
7900;DHT22;3995;50.856;4.404;2024-02-26T00:51:48;11.60;65.80
7900;DHT22;3995;50.856;4.404;2024-02-26T00:54:15;11.50;66.10
7900;DHT22;3995;50.856;4.404;2024-02-26T00:56:42;11.60;66.00
7900;DHT22;3995;50.856;4.404;2024-02-26T00:59:09;11.60;66.10
7900;DHT22;3995;50.856;4.404;2024-02-26T01:01:36;11.60;66.10
7900;DHT22;3995;50.856;4.404;2024-02-26T01:04:03;11.60;66.00
7900;DHT22;3995;50.856;4.404;2024-02-26T01:06:30;11.60;66.10
7900;DHT22;3995;50.856;4.404;2024-02-26T01:08:58;11.50;66.00
7900;DHT22;3995;50.856;4.404;2024-02-26T01:11:25;11.60;66.20
7900;DHT22;3995;50.856;4.404;2024-02-26T01:13:52;11.50;66.10
7900;DHT22;3995;50.856;4.404;2024-02-26T01:16:22;11.50;66.10
7900;DHT22;3995;50.856;4.404;2024-02-26T01:18:49;11.50;66.20
7900;DHT22;3995;50.856;4.404;2024-02-26T01:21:16;11.50;66.20
7900;DHT22;3995;50.856;4.404;2024-02-26T01:23:43;11.50;66.20
7900;DHT22;3995;50.856;4.404;2024-02-26T01:26:11;11.50;66.20
7900;DHT22;3995;50.856;4.404;2024-02-26T01:28:38;11.60;66.50
7900;DHT22;3995;50.856;4.404;2024-02-26T01:31:05;11.50;66.40
7900;DHT22;3995;50.856;4.404;2024-02-26T01:33:34;11.50;66.30
7900;DHT22;3995;50.856;4.404;2024-02-26T01:36:01;11.50;66.30
7900;DHT22;3995;50.856;4.404;2024-02-26T01:38:28;11.50;66.40
7900;DHT22;3995;50.856;4.404;2024-02-26T01:40:55;11.50;66.50
7900;DHT22;3995;50.856;4.404;2024-02-26T01:43:23;11.50;66.40
7900;DHT22;3995;50.856;4.404;2024-02-26T01:45:50;11.50;66.50
7900;DHT22;3995;50.856;4.404;2024-02-26T01:48:17;11.50;66.40
7900;DHT22;3995;50.856;4.404;2024-02-26T01:50:44;11.50;66.50
7900;DHT22;3995;50.856;4.404;2024-02-26T01:53:12;11.50;66.40
7900;DHT22;3995;50.856;4.404;2024-02-26T01:55:39;11.50;66.40
7900;DHT22;3995;50.856;4.404;2024-02-26T01:58:07;11.50;66.50
7900;DHT22;3995;50.856;4.404;2024-02-26T02:00:36;11.50;66.40
7900;DHT22;3995;50.856;4.404;2024-02-26T02:03:04;11.40;66.20
7900;DHT22;3995;50.856;4.404;2024-02-26T02:05:31;11.40;66.40
7900;DHT22;3995;50.856;4.404;2024-02-26T02:07:59;11.40;66.50
7900;DHT22;3995;50.856;4.404;2024-02-26T02:10:29;11.40;66.50
7900;DHT22;3995;50.856;4.404;2024-02-26T02:12:56;11.40;66.70
7900;DHT22;3995;50.856;4.404;2024-02-26T02:15:23;11.40;66.70
7900;DHT22;3995;50.856;4.404;2024-02-26T02:17:51;11.40;66.70
7900;DHT22;3995;50.856;4.404;2024-02-26T02:20:18;11.40;66.60
7900;DHT22;3995;50.856;4.404;2024-02-26T02:22:48;11.40;66.70
7900;DHT22;3995;50.856;4.404;2024-02-26T02:25:15;11.40;66.80
7900;DHT22;3995;50.856;4.404;2024-02-26T02:27:42;11.40;66.80
7900;DHT22;3995;50.856;4.404;2024-02-26T02:30:11;11.40;66.80
7900;DHT22;3995;50.856;4.404;2024-02-26T02:32:39;11.40;66.90
7900;DHT22;3995;50.856;4.404;2024-02-26T02:35:07;11.40;66.90
7900;DHT22;3995;50.856;4.404;2024-02-26T02:37:34;11.40;66.90
7900;DHT22;3995;50.856;4.404;2024-02-26T02:40:03;11.40;66.90
7900;DHT22;3995;50.856;4.404;2024-02-26T02:42:30;11.40;66.90
7900;DHT22;3995;50.856;4.404;2024-02-26T02:44:57;11.30;66.90
7900;DHT22;3995;50.856;4.404;2024-02-26T02:47:24;11.30;67.00
7900;DHT22;3995;50.856;4.404;2024-02-26T02:49:51;11.30;67.10
7900;DHT22;3995;50.856;4.404;2024-02-26T02:52:18;11.30;67.10
7900;DHT22;3995;50.856;4.404;2024-02-26T02:54:45;11.30;67.10
7900;DHT22;3995;50.856;4.404;2024-02-26T02:57:14;11.30;67.10
7900;DHT22;3995;50.856;4.404;2024-02-26T02:59:41;11.30;67.10
7900;DHT22;3995;50.856;4.404;2024-02-26T03:02:08;11.30;67.30
7900;DHT22;3995;50.856;4.404;2024-02-26T03:04:35;11.30;67.30
7900;DHT22;3995;50.856;4.404;2024-02-26T03:07:02;11.30;67.20
7900;DHT22;3995;50.856;4.404;2024-02-26T03:09:29;11.30;67.30
7900;DHT22;3995;50.856;4.404;2024-02-26T03:11:56;11.30;67.30
7900;DHT22;3995;50.856;4.404;2024-02-26T03:14:24;11.30;67.40
7900;DHT22;3995;50.856;4.404;2024-02-26T03:16:53;11.30;67.30
7900;DHT22;3995;50.856;4.404;2024-02-26T03:19:21;11.30;67.40
7900;DHT22;3995;50.856;4.404;2024-02-26T03:21:48;11.30;67.50
7900;DHT22;3995;50.856;4.404;2024-02-26T03:24:15;11.30;67.40
7900;DHT22;3995;50.856;4.404;2024-02-26T03:26:42;11.30;67.30
7900;DHT22;3995;50.856;4.404;2024-02-26T03:29:09;11.30;67.40
7900;DHT22;3995;50.856;4.404;2024-02-26T03:31:38;11.30;67.30
7900;DHT22;3995;50.856;4.404;2024-02-26T03:34:04;11.30;67.20
7900;DHT22;3995;50.856;4.404;2024-02-26T03:36:31;11.30;67.50
7900;DHT22;3995;50.856;4.404;2024-02-26T03:38:58;11.30;67.30
7900;DHT22;3995;50.856;4.404;2024-02-26T03:41:25;11.30;67.30
7900;DHT22;3995;50.856;4.404;2024-02-26T03:43:53;11.30;67.30
7900;DHT22;3995;50.856;4.404;2024-02-26T03:46:19;11.30;67.30
7900;DHT22;3995;50.856;4.404;2024-02-26T03:48:48;11.20;67.20
7900;DHT22;3995;50.856;4.404;2024-02-26T03:51:15;11.30;67.40
7900;DHT22;3995;50.856;4.404;2024-02-26T03:53:42;11.20;67.30
7900;DHT22;3995;50.856;4.404;2024-02-26T03:56:11;11.20;67.40
7900;DHT22;3995;50.856;4.404;2024-02-26T03:58:38;11.20;67.20
7900;DHT22;3995;50.856;4.404;2024-02-26T04:01:07;11.20;67.30
7900;DHT22;3995;50.856;4.404;2024-02-26T04:03:35;11.20;67.40
7900;DHT22;3995;50.856;4.404;2024-02-26T04:06:04;11.20;67.40
7900;DHT22;3995;50.856;4.404;2024-02-26T04:08:31;11.20;67.40
7900;DHT22;3995;50.856;4.404;2024-02-26T04:10:58;11.20;67.40
7900;DHT22;3995;50.856;4.404;2024-02-26T04:13:25;11.20;67.40
7900;DHT22;3995;50.856;4.404;2024-02-26T04:15:52;11.20;67.30
7900;DHT22;3995;50.856;4.404;2024-02-26T04:18:19;11.20;67.30
7900;DHT22;3995;50.856;4.404;2024-02-26T04:20:46;11.20;67.40
7900;DHT22;3995;50.856;4.404;2024-02-26T04:23:14;11.20;67.50
7900;DHT22;3995;50.856;4.404;2024-02-26T04:25:41;11.20;67.50
7900;DHT22;3995;50.856;4.404;2024-02-26T04:28:08;11.20;67.40
7900;DHT22;3995;50.856;4.404;2024-02-26T04:30:35;11.20;67.40
7900;DHT22;3995;50.856;4.404;2024-02-26T04:33:02;11.20;67.40
7900;DHT22;3995;50.856;4.404;2024-02-26T04:35:29;11.20;67.60
7900;DHT22;3995;50.856;4.404;2024-02-26T04:37:56;11.20;67.60
7900;DHT22;3995;50.856;4.404;2024-02-26T04:40:24;11.20;67.60
7900;DHT22;3995;50.856;4.404;2024-02-26T04:42:51;11.20;67.50
7900;DHT22;3995;50.856;4.404;2024-02-26T04:45:18;11.20;67.60
7900;DHT22;3995;50.856;4.404;2024-02-26T04:47:46;11.20;67.60
7900;DHT22;3995;50.856;4.404;2024-02-26T04:50:13;11.20;67.60
7900;DHT22;3995;50.856;4.404;2024-02-26T04:52:41;11.20;67.60
7900;DHT22;3995;50.856;4.404;2024-02-26T04:55:08;11.20;67.60
7900;DHT22;3995;50.856;4.404;2024-02-26T04:57:36;11.20;67.70
7900;DHT22;3995;50.856;4.404;2024-02-26T05:00:04;11.20;67.60
7900;DHT22;3995;50.856;4.404;2024-02-26T05:02:31;11.20;67.60
7900;DHT22;3995;50.856;4.404;2024-02-26T05:05:04;11.20;67.60
7900;DHT22;3995;50.856;4.404;2024-02-26T05:07:31;11.20;67.70
7900;DHT22;3995;50.856;4.404;2024-02-26T05:09:58;11.20;67.80
7900;DHT22;3995;50.856;4.404;2024-02-26T05:12:25;11.20;67.60
7900;DHT22;3995;50.856;4.404;2024-02-26T05:14:53;11.10;67.50
7900;DHT22;3995;50.856;4.404;2024-02-26T05:17:20;11.10;67.60
7900;DHT22;3995;50.856;4.404;2024-02-26T05:19:47;11.10;67.70
7900;DHT22;3995;50.856;4.404;2024-02-26T05:22:14;11.10;67.70
7900;DHT22;3995;50.856;4.404;2024-02-26T05:24:42;11.10;67.80
7900;DHT22;3995;50.856;4.404;2024-02-26T05:27:09;11.10;67.70
7900;DHT22;3995;50.856;4.404;2024-02-26T05:29:36;11.10;67.80
7900;DHT22;3995;50.856;4.404;2024-02-26T05:32:05;11.10;67.90
7900;DHT22;3995;50.856;4.404;2024-02-26T05:34:32;11.10;67.70
7900;DHT22;3995;50.856;4.404;2024-02-26T05:37:00;11.10;67.80
7900;DHT22;3995;50.856;4.404;2024-02-26T05:39:27;11.10;67.90
7900;DHT22;3995;50.856;4.404;2024-02-26T05:41:53;11.00;67.80
7900;DHT22;3995;50.856;4.404;2024-02-26T05:44:22;11.00;67.90
7900;DHT22;3995;50.856;4.404;2024-02-26T05:46:49;11.10;67.90
7900;DHT22;3995;50.856;4.404;2024-02-26T05:49:18;11.00;67.90
7900;DHT22;3995;50.856;4.404;2024-02-26T05:51:45;11.00;67.80
7900;DHT22;3995;50.856;4.404;2024-02-26T05:54:11;11.00;67.80
7900;DHT22;3995;50.856;4.404;2024-02-26T05:56:39;11.00;68.00
7900;DHT22;3995;50.856;4.404;2024-02-26T05:59:06;11.00;68.00
7900;DHT22;3995;50.856;4.404;2024-02-26T06:01:33;11.00;68.00
7900;DHT22;3995;50.856;4.404;2024-02-26T06:04:00;11.00;68.10
7900;DHT22;3995;50.856;4.404;2024-02-26T06:06:29;11.00;68.10
7900;DHT22;3995;50.856;4.404;2024-02-26T06:08:55;11.00;68.10
7900;DHT22;3995;50.856;4.404;2024-02-26T06:11:22;11.00;68.10
7900;DHT22;3995;50.856;4.404;2024-02-26T06:13:49;11.00;68.10
7900;DHT22;3995;50.856;4.404;2024-02-26T06:16:16;11.00;68.10
7900;DHT22;3995;50.856;4.404;2024-02-26T06:18:43;11.00;68.00
7900;DHT22;3995;50.856;4.404;2024-02-26T06:21:10;11.00;68.10
7900;DHT22;3995;50.856;4.404;2024-02-26T06:23:38;11.00;68.10
7900;DHT22;3995;50.856;4.404;2024-02-26T06:26:05;11.00;68.20
7900;DHT22;3995;50.856;4.404;2024-02-26T06:28:32;11.00;68.20
7900;DHT22;3995;50.856;4.404;2024-02-26T06:31:01;11.00;68.20
7900;DHT22;3995;50.856;4.404;2024-02-26T06:33:28;11.00;68.10
7900;DHT22;3995;50.856;4.404;2024-02-26T06:35:55;11.00;68.00
7900;DHT22;3995;50.856;4.404;2024-02-26T06:38:22;10.90;68.00
7900;DHT22;3995;50.856;4.404;2024-02-26T06:40:51;10.90;68.10
7900;DHT22;3995;50.856;4.404;2024-02-26T06:43:17;10.90;68.10
7900;DHT22;3995;50.856;4.404;2024-02-26T06:45:44;10.90;68.00
7900;DHT22;3995;50.856;4.404;2024-02-26T06:48:11;10.80;67.80
7900;DHT22;3995;50.856;4.404;2024-02-26T06:50:38;10.80;67.80
7900;DHT22;3995;50.856;4.404;2024-02-26T06:53:07;10.80;67.90
7900;DHT22;3995;50.856;4.404;2024-02-26T06:55:34;10.70;67.80
7900;DHT22;3995;50.856;4.404;2024-02-26T06:58:02;10.70;67.90
7900;DHT22;3995;50.856;4.404;2024-02-26T07:00:29;10.70;67.90
7900;DHT22;3995;50.856;4.404;2024-02-26T07:02:56;10.70;67.90
7900;DHT22;3995;50.856;4.404;2024-02-26T07:05:23;10.60;67.90
7900;DHT22;3995;50.856;4.404;2024-02-26T07:07:50;10.60;68.10
7900;DHT22;3995;50.856;4.404;2024-02-26T07:10:18;10.60;68.10
7900;DHT22;3995;50.856;4.404;2024-02-26T07:12:45;10.60;67.90
7900;DHT22;3995;50.856;4.404;2024-02-26T07:15:13;10.60;68.00
7900;DHT22;3995;50.856;4.404;2024-02-26T07:17:40;10.60;67.90
7900;DHT22;3995;50.856;4.404;2024-02-26T07:20:13;10.50;67.90
7900;DHT22;3995;50.856;4.404;2024-02-26T07:22:40;10.50;68.00
7900;DHT22;3995;50.856;4.404;2024-02-26T07:25:08;10.50;68.00
7900;DHT22;3995;50.856;4.404;2024-02-26T07:27:38;10.40;67.90
7900;DHT22;3995;50.856;4.404;2024-02-26T07:30:07;10.40;68.10
7900;DHT22;3995;50.856;4.404;2024-02-26T07:32:36;10.40;68.30
7900;DHT22;3995;50.856;4.404;2024-02-26T07:35:03;10.40;68.20
7900;DHT22;3995;50.856;4.404;2024-02-26T07:37:30;10.40;68.20
7900;DHT22;3995;50.856;4.404;2024-02-26T07:39:57;10.40;68.20
7900;DHT22;3995;50.856;4.404;2024-02-26T07:42:26;10.40;68.20
7900;DHT22;3995;50.856;4.404;2024-02-26T07:44:53;10.40;68.30
7900;DHT22;3995;50.856;4.404;2024-02-26T07:47:20;10.40;68.30
7900;DHT22;3995;50.856;4.404;2024-02-26T07:49:48;10.40;68.40
7900;DHT22;3995;50.856;4.404;2024-02-26T07:52:15;10.40;68.30
7900;DHT22;3995;50.856;4.404;2024-02-26T07:54:42;10.40;68.40
7900;DHT22;3995;50.856;4.404;2024-02-26T07:57:09;10.40;68.50
7900;DHT22;3995;50.856;4.404;2024-02-26T07:59:36;10.40;68.50
7900;DHT22;3995;50.856;4.404;2024-02-26T08:02:03;10.40;68.40
7900;DHT22;3995;50.856;4.404;2024-02-26T08:04:31;10.40;68.40
7900;DHT22;3995;50.856;4.404;2024-02-26T08:06:59;10.40;68.40
7900;DHT22;3995;50.856;4.404;2024-02-26T08:09:26;10.40;68.30
7900;DHT22;3995;50.856;4.404;2024-02-26T08:11:53;10.40;68.20
7900;DHT22;3995;50.856;4.404;2024-02-26T08:14:21;10.40;68.30
7900;DHT22;3995;50.856;4.404;2024-02-26T08:16:47;10.40;68.40
7900;DHT22;3995;50.856;4.404;2024-02-26T08:19:14;10.30;68.20
7900;DHT22;3995;50.856;4.404;2024-02-26T08:21:43;10.30;68.30
7900;DHT22;3995;50.856;4.404;2024-02-26T08:24:11;10.30;68.40
7900;DHT22;3995;50.856;4.404;2024-02-26T08:26:38;10.30;68.40
7900;DHT22;3995;50.856;4.404;2024-02-26T08:29:05;10.30;68.40
7900;DHT22;3995;50.856;4.404;2024-02-26T08:31:32;10.40;68.60
7900;DHT22;3995;50.856;4.404;2024-02-26T08:34:02;10.40;68.60
7900;DHT22;3995;50.856;4.404;2024-02-26T08:36:29;10.40;68.50
7900;DHT22;3995;50.856;4.404;2024-02-26T08:38:55;10.30;68.40
7900;DHT22;3995;50.856;4.404;2024-02-26T08:41:24;10.30;68.50
7900;DHT22;3995;50.856;4.404;2024-02-26T08:43:51;10.40;68.60
7900;DHT22;3995;50.856;4.404;2024-02-26T08:46:18;10.40;68.80
7900;DHT22;3995;50.856;4.404;2024-02-26T08:48:45;10.40;68.80
7900;DHT22;3995;50.856;4.404;2024-02-26T08:51:12;10.40;68.70
7900;DHT22;3995;50.856;4.404;2024-02-26T08:53:39;10.40;68.60
7900;DHT22;3995;50.856;4.404;2024-02-26T08:56:06;10.40;68.50
7900;DHT22;3995;50.856;4.404;2024-02-26T08:58:35;10.40;68.50
7900;DHT22;3995;50.856;4.404;2024-02-26T09:01:02;10.40;68.50
7900;DHT22;3995;50.856;4.404;2024-02-26T09:03:29;10.40;68.50
7900;DHT22;3995;50.856;4.404;2024-02-26T09:05:56;10.40;68.50
7900;DHT22;3995;50.856;4.404;2024-02-26T09:08:23;10.40;68.50
7900;DHT22;3995;50.856;4.404;2024-02-26T09:10:50;10.40;68.50
7900;DHT22;3995;50.856;4.404;2024-02-26T09:13:17;10.40;68.40
7900;DHT22;3995;50.856;4.404;2024-02-26T09:15:46;10.40;68.50
7900;DHT22;3995;50.856;4.404;2024-02-26T09:18:13;10.50;68.60
7900;DHT22;3995;50.856;4.404;2024-02-26T09:20:40;10.50;68.60
7900;DHT22;3995;50.856;4.404;2024-02-26T09:23:07;10.50;68.50
7900;DHT22;3995;50.856;4.404;2024-02-26T09:25:34;10.50;68.40
7900;DHT22;3995;50.856;4.404;2024-02-26T09:28:01;10.50;68.20
7900;DHT22;3995;50.856;4.404;2024-02-26T09:30:29;10.50;68.20
7900;DHT22;3995;50.856;4.404;2024-02-26T09:32:57;10.50;68.00
7900;DHT22;3995;50.856;4.404;2024-02-26T09:35:24;10.40;68.10
7900;DHT22;3995;50.856;4.404;2024-02-26T09:37:52;10.40;68.40
7900;DHT22;3995;50.856;4.404;2024-02-26T09:40:19;10.40;68.50
7900;DHT22;3995;50.856;4.404;2024-02-26T09:42:47;10.40;68.30
7900;DHT22;3995;50.856;4.404;2024-02-26T09:45:19;10.50;68.50
7900;DHT22;3995;50.856;4.404;2024-02-26T09:47:48;10.50;68.50
7900;DHT22;3995;50.856;4.404;2024-02-26T09:50:21;10.50;68.40
7900;DHT22;3995;50.856;4.404;2024-02-26T09:52:49;10.50;68.30
7900;DHT22;3995;50.856;4.404;2024-02-26T09:55:16;10.50;68.30
7900;DHT22;3995;50.856;4.404;2024-02-26T09:57:46;10.50;68.40
7900;DHT22;3995;50.856;4.404;2024-02-26T10:00:17;10.50;68.50
7900;DHT22;3995;50.856;4.404;2024-02-26T10:02:45;10.50;68.20
7900;DHT22;3995;50.856;4.404;2024-02-26T10:05:12;10.50;68.30
7900;DHT22;3995;50.856;4.404;2024-02-26T10:07:44;10.50;68.40
7900;DHT22;3995;50.856;4.404;2024-02-26T10:10:11;10.60;68.30
7900;DHT22;3995;50.856;4.404;2024-02-26T10:12:38;10.50;68.10
7900;DHT22;3995;50.856;4.404;2024-02-26T10:15:05;10.50;68.20
7900;DHT22;3995;50.856;4.404;2024-02-26T10:17:32;10.50;68.10
7900;DHT22;3995;50.856;4.404;2024-02-26T10:20:11;10.50;68.30
7900;DHT22;3995;50.856;4.404;2024-02-26T10:22:39;10.60;68.20
7900;DHT22;3995;50.856;4.404;2024-02-26T10:25:08;10.50;68.10
7900;DHT22;3995;50.856;4.404;2024-02-26T10:27:35;10.50;68.00
7900;DHT22;3995;50.856;4.404;2024-02-26T10:30:03;10.40;67.90
7900;DHT22;3995;50.856;4.404;2024-02-26T10:32:30;10.40;67.90
7900;DHT22;3995;50.856;4.404;2024-02-26T10:34:58;10.40;67.80
7900;DHT22;3995;50.856;4.404;2024-02-26T10:37:25;10.50;67.90
7900;DHT22;3995;50.856;4.404;2024-02-26T10:39:52;10.50;67.90
7900;DHT22;3995;50.856;4.404;2024-02-26T10:42:20;10.50;68.00
7900;DHT22;3995;50.856;4.404;2024-02-26T10:44:47;10.50;67.90
7900;DHT22;3995;50.856;4.404;2024-02-26T10:47:15;10.40;67.70
7900;DHT22;3995;50.856;4.404;2024-02-26T10:49:45;10.40;67.80
7900;DHT22;3995;50.856;4.404;2024-02-26T10:52:14;10.40;67.40
7900;DHT22;3995;50.856;4.404;2024-02-26T10:54:42;10.40;67.50
7900;DHT22;3995;50.856;4.404;2024-02-26T10:57:13;10.40;67.70
7900;DHT22;3995;50.856;4.404;2024-02-26T10:59:42;10.40;67.70
7900;DHT22;3995;50.856;4.404;2024-02-26T11:02:10;10.40;67.80
7900;DHT22;3995;50.856;4.404;2024-02-26T11:04:39;10.40;67.70
7900;DHT22;3995;50.856;4.404;2024-02-26T11:07:08;10.50;67.70
7900;DHT22;3995;50.856;4.404;2024-02-26T11:09:36;10.50;67.70
7900;DHT22;3995;50.856;4.404;2024-02-26T11:12:08;10.50;67.60
7900;DHT22;3995;50.856;4.404;2024-02-26T11:14:39;10.50;67.40
7900;DHT22;3995;50.856;4.404;2024-02-26T11:17:09;10.50;67.20
7900;DHT22;3995;50.856;4.404;2024-02-26T11:19:38;10.50;67.60
7900;DHT22;3995;50.856;4.404;2024-02-26T11:22:05;10.40;66.90
7900;DHT22;3995;50.856;4.404;2024-02-26T11:24:33;10.40;67.00
7900;DHT22;3995;50.856;4.404;2024-02-26T11:27:02;10.40;67.10
7900;DHT22;3995;50.856;4.404;2024-02-26T11:29:34;10.40;67.20
7900;DHT22;3995;50.856;4.404;2024-02-26T11:32:05;10.40;66.70
7900;DHT22;3995;50.856;4.404;2024-02-26T11:34:34;10.40;66.60
7900;DHT22;3995;50.856;4.404;2024-02-26T11:37:10;10.40;66.40
7900;DHT22;3995;50.856;4.404;2024-02-26T11:39:37;10.40;66.50
7900;DHT22;3995;50.856;4.404;2024-02-26T11:42:06;10.30;66.60
7900;DHT22;3995;50.856;4.404;2024-02-26T11:44:34;10.30;66.70
7900;DHT22;3995;50.856;4.404;2024-02-26T11:47:10;10.30;66.50
7900;DHT22;3995;50.856;4.404;2024-02-26T11:49:39;10.40;66.40
7900;DHT22;3995;50.856;4.404;2024-02-26T11:52:07;10.30;66.50
7900;DHT22;3995;50.856;4.404;2024-02-26T11:54:44;10.30;66.30
7900;DHT22;3995;50.856;4.404;2024-02-26T11:57:25;10.40;66.50
7900;DHT22;3995;50.856;4.404;2024-02-26T11:59:53;10.40;66.60
7900;DHT22;3995;50.856;4.404;2024-02-26T12:02:41;10.30;66.60
7900;DHT22;3995;50.856;4.404;2024-02-26T12:05:11;10.40;66.50
7900;DHT22;3995;50.856;4.404;2024-02-26T12:07:40;10.30;66.70
7900;DHT22;3995;50.856;4.404;2024-02-26T12:10:25;10.30;66.80
7900;DHT22;3995;50.856;4.404;2024-02-26T12:12:58;10.40;66.50
7900;DHT22;3995;50.856;4.404;2024-02-26T12:15:31;10.40;66.70
7900;DHT22;3995;50.856;4.404;2024-02-26T12:18:01;10.30;66.70
7900;DHT22;3995;50.856;4.404;2024-02-26T12:20:30;10.30;66.80
7900;DHT22;3995;50.856;4.404;2024-02-26T12:22:57;10.40;66.90
7900;DHT22;3995;50.856;4.404;2024-02-26T12:25:26;10.40;66.80
7900;DHT22;3995;50.856;4.404;2024-02-26T12:27:53;10.40;66.80
7900;DHT22;3995;50.856;4.404;2024-02-26T12:30:20;10.40;66.70
7900;DHT22;3995;50.856;4.404;2024-02-26T12:32:48;10.40;66.80
7900;DHT22;3995;50.856;4.404;2024-02-26T12:35:16;10.40;66.80
7900;DHT22;3995;50.856;4.404;2024-02-26T12:37:45;10.40;66.90
7900;DHT22;3995;50.856;4.404;2024-02-26T12:40:13;10.40;67.10
7900;DHT22;3995;50.856;4.404;2024-02-26T12:42:40;10.40;67.20
7900;DHT22;3995;50.856;4.404;2024-02-26T12:45:10;10.40;67.30
7900;DHT22;3995;50.856;4.404;2024-02-26T12:47:37;10.40;67.10
7900;DHT22;3995;50.856;4.404;2024-02-26T12:50:06;10.40;67.20
7900;DHT22;3995;50.856;4.404;2024-02-26T12:52:34;10.30;67.20
7900;DHT22;3995;50.856;4.404;2024-02-26T12:55:03;10.30;67.20
7900;DHT22;3995;50.856;4.404;2024-02-26T12:57:31;10.30;67.50
7900;DHT22;3995;50.856;4.404;2024-02-26T12:59:59;10.30;67.60
7900;DHT22;3995;50.856;4.404;2024-02-26T13:02:26;10.30;67.60
7900;DHT22;3995;50.856;4.404;2024-02-26T13:04:54;10.40;67.50
7900;DHT22;3995;50.856;4.404;2024-02-26T13:07:22;10.40;67.60
7900;DHT22;3995;50.856;4.404;2024-02-26T13:09:49;10.40;67.60
7900;DHT22;3995;50.856;4.404;2024-02-26T13:12:18;10.40;67.50
7900;DHT22;3995;50.856;4.404;2024-02-26T13:14:45;10.40;67.50
7900;DHT22;3995;50.856;4.404;2024-02-26T13:17:12;10.40;67.50
7900;DHT22;3995;50.856;4.404;2024-02-26T13:19:49;10.40;67.30
7900;DHT22;3995;50.856;4.404;2024-02-26T13:22:16;10.40;66.90
7900;DHT22;3995;50.856;4.404;2024-02-26T13:24:53;10.40;67.00
7900;DHT22;3995;50.856;4.404;2024-02-26T13:27:23;10.40;66.80
7900;DHT22;3995;50.856;4.404;2024-02-26T13:30:05;10.40;67.00
7900;DHT22;3995;50.856;4.404;2024-02-26T13:32:33;10.50;67.10
7900;DHT22;3995;50.856;4.404;2024-02-26T13:35:08;10.40;67.10
7900;DHT22;3995;50.856;4.404;2024-02-26T13:37:35;10.50;66.70
7900;DHT22;3995;50.856;4.404;2024-02-26T13:40:05;10.40;66.70
7900;DHT22;3995;50.856;4.404;2024-02-26T13:42:34;10.40;66.50
7900;DHT22;3995;50.856;4.404;2024-02-26T13:45:01;10.40;66.60
7900;DHT22;3995;50.856;4.404;2024-02-26T13:47:28;10.40;66.70
7900;DHT22;3995;50.856;4.404;2024-02-26T13:49:55;10.40;66.70
7900;DHT22;3995;50.856;4.404;2024-02-26T13:52:22;10.40;66.70
7900;DHT22;3995;50.856;4.404;2024-02-26T13:54:49;10.40;66.70
7900;DHT22;3995;50.856;4.404;2024-02-26T13:57:16;10.40;66.50
7900;DHT22;3995;50.856;4.404;2024-02-26T13:59:45;10.40;66.70
7900;DHT22;3995;50.856;4.404;2024-02-26T14:02:13;10.40;67.00
7900;DHT22;3995;50.856;4.404;2024-02-26T14:04:40;10.50;67.20
7900;DHT22;3995;50.856;4.404;2024-02-26T14:07:07;10.40;66.80
7900;DHT22;3995;50.856;4.404;2024-02-26T14:09:34;10.40;66.70
7900;DHT22;3995;50.856;4.404;2024-02-26T14:12:01;10.40;66.90
7900;DHT22;3995;50.856;4.404;2024-02-26T14:14:29;10.40;67.00
7900;DHT22;3995;50.856;4.404;2024-02-26T14:16:59;10.40;67.00
7900;DHT22;3995;50.856;4.404;2024-02-26T14:19:27;10.40;67.20
7900;DHT22;3995;50.856;4.404;2024-02-26T14:21:54;10.40;67.30
7900;DHT22;3995;50.856;4.404;2024-02-26T14:24:21;10.50;67.30
7900;DHT22;3995;50.856;4.404;2024-02-26T14:26:48;10.50;67.40
7900;DHT22;3995;50.856;4.404;2024-02-26T14:29:15;10.50;67.50
7900;DHT22;3995;50.856;4.404;2024-02-26T14:31:42;10.50;67.60
7900;DHT22;3995;50.856;4.404;2024-02-26T14:34:10;10.60;67.50
7900;DHT22;3995;50.856;4.404;2024-02-26T14:36:37;10.60;67.50
7900;DHT22;3995;50.856;4.404;2024-02-26T14:39:05;10.60;67.40
7900;DHT22;3995;50.856;4.404;2024-02-26T14:41:32;10.50;67.20
7900;DHT22;3995;50.856;4.404;2024-02-26T14:43:59;10.50;67.30
7900;DHT22;3995;50.856;4.404;2024-02-26T14:46:26;10.50;67.30
7900;DHT22;3995;50.856;4.404;2024-02-26T14:48:53;10.50;67.40
7900;DHT22;3995;50.856;4.404;2024-02-26T14:51:22;10.40;67.50
7900;DHT22;3995;50.856;4.404;2024-02-26T14:53:49;10.50;67.80
7900;DHT22;3995;50.856;4.404;2024-02-26T14:56:16;10.50;67.80
7900;DHT22;3995;50.856;4.404;2024-02-26T14:58:44;10.50;68.50
7900;DHT22;3995;50.856;4.404;2024-02-26T15:01:12;10.50;67.70
7900;DHT22;3995;50.856;4.404;2024-02-26T15:03:39;10.50;67.70
7900;DHT22;3995;50.856;4.404;2024-02-26T15:06:06;10.50;67.80
7900;DHT22;3995;50.856;4.404;2024-02-26T15:08:35;10.50;67.80
7900;DHT22;3995;50.856;4.404;2024-02-26T15:11:03;10.50;67.70
7900;DHT22;3995;50.856;4.404;2024-02-26T15:13:30;10.40;67.70
7900;DHT22;3995;50.856;4.404;2024-02-26T15:15:57;10.40;67.70
7900;DHT22;3995;50.856;4.404;2024-02-26T15:18:25;10.40;67.70
7900;DHT22;3995;50.856;4.404;2024-02-26T15:20:51;10.40;67.50
7900;DHT22;3995;50.856;4.404;2024-02-26T15:23:19;10.40;67.50
7900;DHT22;3995;50.856;4.404;2024-02-26T15:25:47;10.30;67.60
7900;DHT22;3995;50.856;4.404;2024-02-26T15:28:14;10.30;67.50
7900;DHT22;3995;50.856;4.404;2024-02-26T15:30:42;10.30;67.60
7900;DHT22;3995;50.856;4.404;2024-02-26T15:33:09;10.30;67.60
7900;DHT22;3995;50.856;4.404;2024-02-26T15:35:37;10.30;67.60
7900;DHT22;3995;50.856;4.404;2024-02-26T15:38:04;10.30;68.20
7900;DHT22;3995;50.856;4.404;2024-02-26T15:40:31;10.30;67.60
7900;DHT22;3995;50.856;4.404;2024-02-26T15:43:00;10.30;67.70
7900;DHT22;3995;50.856;4.404;2024-02-26T15:45:27;10.40;67.80
7900;DHT22;3995;50.856;4.404;2024-02-26T15:47:57;10.40;67.80
7900;DHT22;3995;50.856;4.404;2024-02-26T15:50:25;10.30;67.80
7900;DHT22;3995;50.856;4.404;2024-02-26T15:52:52;10.30;67.60
7900;DHT22;3995;50.856;4.404;2024-02-26T15:55:19;10.30;67.70
7900;DHT22;3995;50.856;4.404;2024-02-26T15:57:46;10.30;67.70
7900;DHT22;3995;50.856;4.404;2024-02-26T16:00:17;10.30;67.70
7900;DHT22;3995;50.856;4.404;2024-02-26T16:02:47;10.30;67.70
7900;DHT22;3995;50.856;4.404;2024-02-26T16:05:15;10.30;67.70